Time;durP1;ratioP1;P1;durP2;ratioP2;P2;SDS_P1;SDS_P2;PMS_P1;PMS_P2;Temp;Humidity;BMP_temperature;BMP_pressure;BME280_temperature;BME280_humidity;BME280_pressure;Samples;Min_cycle;Max_cycle;Signal;HPM_P1;HPM_P2
2023/12/29 00:01:59;;;;;;;4.28;1.65;;;15.90;60.50;;;;;;5095140;28;20217;-61
2023/12/29 00:04:28;;;;;;;5.00;1.80;;;15.90;60.50;;;;;;5093903;28;20181;-62
2023/12/29 00:06:53;;;;;;;2.58;1.45;;;15.90;60.50;;;;;;5094903;28;20185;-60
2023/12/29 00:09:22;;;;;;;3.75;1.60;;;15.90;60.50;;;;;;5094630;28;20170;-61
2023/12/29 00:11:49;;;;;;;2.78;1.38;;;15.90;60.50;;;;;;5094192;28;20653;-61
2023/12/29 00:14:14;;;;;;;3.38;1.75;;;15.90;60.60;;;;;;5094681;28;20174;-61
2023/12/29 00:16:40;;;;;;;5.05;1.80;;;15.90;60.70;;;;;;5094757;28;20170;-60
2023/12/29 00:19:05;;;;;;;4.38;1.50;;;15.90;60.60;;;;;;5093934;28;20173;-60
2023/12/29 00:21:31;;;;;;;2.95;1.60;;;15.90;60.60;;;;;;5093519;28;20232;-60
2023/12/29 00:23:56;;;;;;;4.45;1.67;;;15.90;60.70;;;;;;5094321;28;20182;-60
2023/12/29 00:26:22;;;;;;;3.33;1.58;;;15.90;60.70;;;;;;5093735;28;20188;-60
2023/12/29 00:28:47;;;;;;;4.85;1.77;;;15.90;60.70;;;;;;5093367;28;20165;-60
2023/12/29 00:31:16;;;;;;;3.15;1.38;;;15.90;60.70;;;;;;5094852;28;20255;-61
2023/12/29 00:33:43;;;;;;;5.15;1.67;;;15.90;60.60;;;;;;5093844;28;20653;-61
2023/12/29 00:36:08;;;;;;;4.47;1.40;;;15.90;60.70;;;;;;5094580;28;20270;-61
2023/12/29 00:38:34;;;;;;;3.22;1.42;;;15.90;60.70;;;;;;5075990;28;20206;-60
2023/12/29 00:40:59;;;;;;;4.88;1.95;;;15.80;60.60;;;;;;5093712;28;20293;-61
2023/12/29 00:43:25;;;;;;;3.65;1.52;;;15.90;60.80;;;;;;5094121;28;20170;-61
2023/12/29 00:45:50;;;;;;;2.55;1.50;;;15.90;60.80;;;;;;5094255;28;20166;-61
2023/12/29 00:48:16;;;;;;;5.97;1.90;;;15.80;60.80;;;;;;5093251;28;20231;-61
2023/12/29 00:50:42;;;;;;;4.25;1.58;;;15.80;60.90;;;;;;5094177;28;20259;-61
2023/12/29 00:53:07;;;;;;;3.38;1.42;;;15.90;60.90;;;;;;5093475;28;20182;-61
2023/12/29 00:55:33;;;;;;;4.07;1.52;;;15.80;60.80;;;;;;5093667;28;20181;-61
2023/12/29 00:57:58;;;;;;;4.55;1.48;;;15.80;60.90;;;;;;5094035;28;20223;-61
2023/12/29 01:00:24;;;;;;;4.80;1.45;;;15.80;61.10;;;;;;5093050;28;20192;-60
2023/12/29 01:02:49;;;;;;;4.88;1.58;;;15.80;61.00;;;;;;5093861;28;20210;-60
2023/12/29 01:05:18;;;;;;;4.30;1.58;;;15.80;61.00;;;;;;5094018;28;20185;-60
2023/12/29 01:07:43;;;;;;;3.83;1.27;;;15.80;61.10;;;;;;5093101;28;20178;-60
2023/12/29 01:10:09;;;;;;;2.65;1.58;;;15.80;61.00;;;;;;5093957;28;20170;-60
2023/12/29 01:12:35;;;;;;;5.28;1.98;;;15.80;61.00;;;;;;5093602;28;20227;-60
2023/12/29 01:15:00;;;;;;;3.47;1.38;;;15.80;61.10;;;;;;5092978;28;20629;-60
2023/12/29 01:17:27;;;;;;;3.70;1.45;;;15.80;61.10;;;;;;5092128;28;20540;-60
2023/12/29 01:19:53;;;;;;;3.63;1.55;;;15.80;61.00;;;;;;5093812;28;20185;-60
2023/12/29 01:22:19;;;;;;;3.95;1.40;;;15.80;61.10;;;;;;5092445;28;20266;-60
2023/12/29 01:24:44;;;;;;;2.25;1.15;;;15.70;61.10;;;;;;5093486;28;20177;-60
2023/12/29 01:27:10;;;;;;;3.65;1.42;;;15.80;61.10;;;;;;5093528;28;20181;-60
2023/12/29 01:29:36;;;;;;;4.35;1.70;;;15.80;61.10;;;;;;5092492;28;20241;-60
2023/12/29 01:32:03;;;;;;;3.97;1.40;;;15.80;61.10;;;;;;5093354;28;20646;-61
2023/12/29 01:34:32;;;;;;;3.13;1.30;;;15.80;61.10;;;;;;5093233;28;20166;-61
2023/12/29 01:36:58;;;;;;;4.40;1.88;;;15.80;61.00;;;;;;5092750;28;20186;-60
2023/12/29 01:39:23;;;;;;;3.72;1.60;;;15.80;61.00;;;;;;5092950;28;20176;-60
2023/12/29 01:41:49;;;;;;;3.88;1.58;;;15.80;61.00;;;;;;5093135;28;20896;-60
2023/12/29 01:44:21;;;;;;;3.60;1.40;;;15.70;61.00;;;;;;5092129;28;20177;-60
2023/12/29 01:46:49;;;;;;;4.47;1.52;;;15.70;61.00;;;;;;5093323;28;20178;-60
2023/12/29 01:49:17;;;;;;;3.75;1.67;;;15.80;61.10;;;;;;5092934;28;20173;-60
2023/12/29 01:51:43;;;;;;;2.53;1.17;;;15.70;61.00;;;;;;5074809;28;20184;-61
2023/12/29 01:54:08;;;;;;;5.35;1.77;;;15.70;61.00;;;;;;5092900;28;20221;-60
2023/12/29 01:56:34;;;;;;;3.90;1.52;;;15.70;61.10;;;;;;5092008;28;20264;-60
2023/12/29 01:59:00;;;;;;;4.88;1.60;;;15.70;61.20;;;;;;5092848;28;20252;-64
2023/12/29 02:01:25;;;;;;;5.07;1.80;;;15.70;61.10;;;;;;5092575;28;20621;-61
2023/12/29 02:03:51;;;;;;;3.60;1.58;;;15.70;61.10;;;;;;5073954;28;20166;-60
2023/12/29 02:06:16;;;;;;;4.05;1.88;;;15.70;61.10;;;;;;5092468;28;20182;-60
2023/12/29 02:08:42;;;;;;;3.45;1.65;;;15.70;61.20;;;;;;5058109;28;20174;-60
2023/12/29 02:11:07;;;;;;;4.18;1.85;;;15.70;61.20;;;;;;5073926;28;20203;-60
2023/12/29 02:13:33;;;;;;;2.13;1.25;;;15.70;61.20;;;;;;5092325;28;20178;-60
2023/12/29 02:16:02;;;;;;;5.30;1.83;;;15.70;61.20;;;;;;5092877;28;20695;-60
2023/12/29 02:18:28;;;;;;;3.92;1.45;;;15.70;61.20;;;;;;5073678;28;20181;-60
2023/12/29 02:20:53;;;;;;;3.45;1.30;;;15.70;61.30;;;;;;5074514;28;20194;-60
2023/12/29 02:23:19;;;;;;;3.95;1.50;;;15.70;61.30;;;;;;5092242;28;20177;-59
2023/12/29 02:25:44;;;;;;;3.78;1.92;;;15.70;61.30;;;;;;5091808;28;20165;-59
2023/12/29 02:28:25;;;;;;;4.63;1.50;;;15.70;61.20;;;;;;5074168;28;20640;-59
2023/12/29 02:31:00;;;;;;;6.32;1.67;;;15.60;61.20;;;;;;5092619;28;20178;-59
2023/12/29 02:33:25;;;;;;;3.85;2.20;;;15.60;61.20;;;;;;5091368;28;20635;-59
2023/12/29 02:35:52;;;;;;;3.72;1.70;;;15.70;61.30;;;;;;5074381;28;20193;-59
2023/12/29 02:38:18;;;;;;;3.05;1.63;;;15.60;61.20;;;;;;5092032;28;20178;-59
2023/12/29 02:40:43;;;;;;;2.13;1.10;;;15.60;61.20;;;;;;5091452;28;20181;-59
2023/12/29 02:43:09;;;;;;;2.47;1.20;;;15.60;61.30;;;;;;5057805;28;20197;-59
2023/12/29 02:45:35;;;;;;;4.50;1.42;;;15.60;61.30;;;;;;5091330;28;20178;-59
2023/12/29 02:48:00;;;;;;;3.00;1.40;;;15.60;61.40;;;;;;5092028;28;20177;-60
2023/12/29 02:50:26;;;;;;;3.90;1.50;;;15.60;61.40;;;;;;5091945;28;20170;-60
2023/12/29 02:52:51;;;;;;;2.63;1.48;;;15.60;61.40;;;;;;5091324;28;20628;-61
2023/12/29 02:55:17;;;;;;;5.22;1.58;;;15.60;61.40;;;;;;5091775;28;20790;-60
2023/12/29 02:57:42;;;;;;;3.25;1.80;;;15.60;61.40;;;;;;5091889;28;20178;-60
2023/12/29 03:00:08;;;;;;;3.55;1.45;;;15.60;61.40;;;;;;5091527;28;20174;-59
2023/12/29 03:02:34;;;;;;;3.20;1.27;;;15.60;62.40;;;;;;5089848;28;20373;-60
2023/12/29 03:05:00;;;;;;;6.30;1.50;;;15.60;61.50;;;;;;5092087;28;20210;-59
2023/12/29 03:07:25;;;;;;;3.95;1.08;;;15.60;61.50;;;;;;5090971;28;20178;-60
2023/12/29 03:09:51;;;;;;;3.90;1.48;;;15.60;61.60;;;;;;5091968;28;20661;-60
2023/12/29 03:12:16;;;;;;;4.30;1.63;;;15.60;61.50;;;;;;5091806;28;20231;-59
2023/12/29 03:14:42;;;;;;;3.50;1.80;;;15.60;61.50;;;;;;5091409;28;20169;-59
2023/12/29 03:17:07;;;;;;;3.35;1.67;;;15.60;61.60;;;;;;5092039;28;20640;-59
2023/12/29 03:19:33;;;;;;;2.22;1.23;;;15.60;61.60;;;;;;5091547;28;20176;-60
2023/12/29 03:21:58;;;;;;;3.90;1.88;;;15.60;61.70;;;;;;5091109;28;20202;-61
2023/12/29 03:24:24;;;;;;;4.43;1.42;;;15.60;61.70;;;;;;5090855;28;20182;-60
2023/12/29 03:26:49;;;;;;;4.65;1.38;;;15.50;61.70;;;;;;5091988;28;20637;-60
2023/12/29 03:29:15;;;;;;;5.28;1.52;;;15.50;61.70;;;;;;5090755;28;20166;-59
2023/12/29 03:31:41;;;;;;;4.55;1.77;;;15.50;61.70;;;;;;5090866;28;20182;-59
2023/12/29 03:34:06;;;;;;;4.07;1.42;;;15.60;61.80;;;;;;5090964;28;20166;-60
2023/12/29 03:36:32;;;;;;;2.83;1.30;;;15.60;61.80;;;;;;5089754;28;20532;-59
2023/12/29 03:38:57;;;;;;;3.83;1.60;;;15.60;61.80;;;;;;5090707;28;20178;-60
2023/12/29 03:41:23;;;;;;;3.97;1.58;;;15.60;61.80;;;;;;5093256;28;20281;-59
2023/12/29 03:43:48;;;;;;;5.32;1.65;;;15.50;61.80;;;;;;5093802;28;20623;-60
2023/12/29 03:46:17;;;;;;;3.80;1.52;;;15.60;61.80;;;;;;5094198;28;20199;-60
2023/12/29 03:48:43;;;;;;;3.97;1.60;;;15.50;61.80;;;;;;5094464;28;20189;-60
2023/12/29 03:51:08;;;;;;;1.67;1.25;;;15.60;61.90;;;;;;5106841;28;20177;-60
2023/12/29 03:53:34;;;;;;;2.15;1.25;;;15.50;61.90;;;;;;5114178;28;20228;-60
2023/12/29 03:56:03;;;;;;;3.90;1.50;;;15.60;62.00;;;;;;5114106;28;20188;-60
2023/12/29 03:58:29;;;;;;;2.88;1.42;;;15.60;62.00;;;;;;5114553;28;20189;-60
2023/12/29 04:00:54;;;;;;;3.33;1.75;;;15.60;62.00;;;;;;5114558;28;20700;-59
2023/12/29 04:03:20;;;;;;;4.20;1.48;;;15.50;62.00;;;;;;5113490;28;20184;-60
2023/12/29 04:05:45;;;;;;;2.42;1.15;;;15.60;62.10;;;;;;5114493;28;20187;-60
2023/12/29 04:08:12;;;;;;;2.97;1.27;;;15.50;62.00;;;;;;5114425;28;20180;-59
2023/12/29 04:10:37;;;;;;;3.58;1.55;;;15.50;62.00;;;;;;5113412;28;20202;-59
2023/12/29 04:13:03;;;;;;;5.50;1.55;;;15.50;62.00;;;;;;5113698;28;20713;-59
2023/12/29 04:15:28;;;;;;;3.15;1.48;;;15.50;62.00;;;;;;5113067;28;20173;-59
2023/12/29 04:17:54;;;;;;;1.77;1.20;;;15.50;62.00;;;;;;5113471;28;20207;-59
2023/12/29 04:20:19;;;;;;;5.63;1.52;;;15.50;62.10;;;;;;5113895;28;20206;-60
2023/12/29 04:22:46;;;;;;;3.08;1.20;;;15.50;62.20;;;;;;5114035;28;20222;-59
2023/12/29 04:25:12;;;;;;;3.45;1.13;;;15.50;62.10;;;;;;5113424;28;20179;-60
2023/12/29 04:27:37;;;;;;;2.60;1.35;;;15.50;62.20;;;;;;5113744;28;20264;-60
2023/12/29 04:30:03;;;;;;;3.67;1.20;;;15.50;62.10;;;;;;5114186;28;20264;-59
2023/12/29 04:32:29;;;;;;;3.38;1.48;;;15.50;62.10;;;;;;5113118;28;20183;-60
2023/12/29 04:34:54;;;;;;;4.43;1.95;;;15.50;62.10;;;;;;5114038;28;20169;-59
2023/12/29 04:37:20;;;;;;;5.03;1.52;;;15.50;62.10;;;;;;5112681;28;20639;-59
2023/12/29 04:39:45;;;;;;;2.20;1.50;;;15.50;62.10;;;;;;5113360;28;20161;-60
2023/12/29 04:42:11;;;;;;;4.82;1.60;;;15.40;62.00;;;;;;5113894;28;20357;-60
2023/12/29 04:44:37;;;;;;;4.05;1.52;;;15.50;62.20;;;;;;5113486;28;20538;-60
2023/12/29 04:47:02;;;;;;;6.60;1.73;;;15.50;62.10;;;;;;5113068;28;20176;-59
2023/12/29 04:49:28;;;;;;;4.25;1.88;;;15.50;62.00;;;;;;5113392;28;20679;-60
2023/12/29 04:51:54;;;;;;;6.35;1.60;;;15.50;62.10;;;;;;5113422;28;20248;-60
2023/12/29 04:54:19;;;;;;;3.78;1.33;;;15.50;62.10;;;;;;5112416;28;20224;-60
2023/12/29 04:56:45;;;;;;;3.92;1.33;;;15.50;62.00;;;;;;5113517;28;20177;-60
2023/12/29 04:59:10;;;;;;;3.00;1.38;;;15.40;61.90;;;;;;5113471;28;20169;-60
2023/12/29 05:01:36;;;;;;;4.82;1.65;;;15.40;62.10;;;;;;5112633;28;20212;-60
2023/12/29 05:04:01;;;;;;;4.38;1.35;;;15.50;62.10;;;;;;5113377;28;20321;-60
2023/12/29 05:06:27;;;;;;;4.45;1.83;;;15.40;62.00;;;;;;5112291;28;20216;-59
2023/12/29 05:08:52;;;;;;;2.60;1.23;;;15.50;62.10;;;;;;5113473;28;20623;-61
2023/12/29 05:11:18;;;;;;;5.90;1.52;;;15.40;62.00;;;;;;5112882;28;20720;-60
2023/12/29 05:13:44;;;;;;;3.83;1.45;;;15.40;62.00;;;;;;5112391;28;20165;-59
2023/12/29 05:16:09;;;;;;;4.78;1.48;;;15.40;62.00;;;;;;5113211;28;20169;-59
2023/12/29 05:18:35;;;;;;;4.53;1.30;;;15.50;62.10;;;;;;5094455;28;20632;-60
2023/12/29 05:21:01;;;;;;;4.63;1.42;;;15.40;61.90;;;;;;5112155;28;20195;-60
2023/12/29 05:23:26;;;;;;;4.68;1.50;;;15.40;61.90;;;;;;5113016;28;20169;-59
2023/12/29 05:25:52;;;;;;;3.38;1.42;;;15.40;61.80;;;;;;5113209;28;20550;-59
2023/12/29 05:28:17;;;;;;;4.65;1.80;;;15.40;61.90;;;;;;5111832;28;20607;-59
2023/12/29 05:30:43;;;;;;;5.05;1.95;;;15.40;61.90;;;;;;5112788;28;20173;-59
2023/12/29 05:33:08;;;;;;;6.97;1.60;;;15.40;61.90;;;;;;5112903;28;20654;-59
2023/12/29 05:35:34;;;;;;;4.10;1.90;;;15.40;61.90;;;;;;5112055;28;20267;-60
2023/12/29 05:37:59;;;;;;;4.35;1.60;;;15.40;61.90;;;;;;5113242;28;20181;-60
2023/12/29 05:40:25;;;;;;;3.05;1.80;;;15.40;61.90;;;;;;5112717;28;20173;-59
2023/12/29 05:42:51;;;;;;;5.07;2.20;;;15.40;61.90;;;;;;5112365;28;20228;-60
2023/12/29 05:45:17;;;;;;;4.93;2.05;;;15.40;61.90;;;;;;5112798;28;20556;-59
2023/12/29 05:47:43;;;;;;;4.88;1.80;;;15.40;62.70;;;;;;5112893;28;20177;-60
2023/12/29 05:50:09;;;;;;;3.53;1.65;;;15.40;61.90;;;;;;5112539;28;20188;-60
2023/12/29 05:52:34;;;;;;;3.72;1.60;;;15.40;62.00;;;;;;5112761;28;20188;-60
2023/12/29 05:55:00;;;;;;;3.85;1.67;;;15.40;61.90;;;;;;5112560;28;20739;-60
2023/12/29 05:57:25;;;;;;;5.90;2.17;;;15.40;61.90;;;;;;5111785;28;20538;-60
2023/12/29 05:59:51;;;;;;;5.20;2.08;;;15.40;61.90;;;;;;5112589;28;20173;-59
2023/12/29 06:02:16;;;;;;;3.30;1.40;;;15.40;61.90;;;;;;5112231;28;20201;-59
2023/12/29 06:04:42;;;;;;;4.45;1.92;;;15.30;61.90;;;;;;5112018;28;20520;-59
2023/12/29 06:07:07;;;;;;;4.65;1.65;;;15.30;61.90;;;;;;5112758;28;20276;-59
2023/12/29 06:09:33;;;;;;;4.18;1.80;;;15.40;61.90;;;;;;5111892;28;20173;-60
2023/12/29 06:11:58;;;;;;;4.95;2.00;;;15.40;61.80;;;;;;5112599;28;20658;-59
2023/12/29 06:14:24;;;;;;;4.20;1.52;;;15.40;61.80;;;;;;5112052;28;20165;-59
2023/12/29 06:16:50;;;;;;;4.32;1.80;;;15.40;61.80;;;;;;5111695;28;20181;-59
2023/12/29 06:19:15;;;;;;;3.72;1.60;;;15.40;61.80;;;;;;5112015;28;20239;-59
2023/12/29 06:21:43;;;;;;;5.13;2.40;;;15.40;61.90;;;;;;5112431;28;20285;-59
2023/12/29 06:24:09;;;;;;;4.25;1.60;;;15.40;61.80;;;;;;5111531;28;20165;-59
2023/12/29 06:26:35;;;;;;;5.88;1.70;;;15.40;62.60;;;;;;5112108;28;20181;-59
2023/12/29 06:29:00;;;;;;;5.18;1.77;;;15.40;61.60;;;;;;5112399;28;20216;-59
2023/12/29 06:31:26;;;;;;;3.42;1.50;;;15.40;61.60;;;;;;5111188;28;20208;-60
2023/12/29 06:33:51;;;;;;;5.15;1.90;;;15.40;61.60;;;;;;5112069;28;20165;-60
2023/12/29 06:36:17;;;;;;;3.25;2.03;;;15.50;62.50;;;;;;5111805;28;20245;-60
2023/12/29 06:38:48;;;;;;;3.33;1.60;;;15.50;62.60;;;;;;5111470;28;20700;-59
2023/12/29 06:41:13;;;;;;;5.40;1.77;;;15.40;61.60;;;;;;5111836;28;20216;-60
2023/12/29 06:43:39;;;;;;;4.25;1.75;;;15.40;61.60;;;;;;5112024;28;20233;-59
2023/12/29 06:46:05;;;;;;;5.35;1.77;;;15.40;62.50;;;;;;5111379;28;20180;-60
2023/12/29 06:48:30;;;;;;;6.35;2.03;;;15.40;61.60;;;;;;5111878;28;20336;-60
2023/12/29 06:50:56;;;;;;;6.50;2.03;;;15.40;61.60;;;;;;5112141;28;20166;-60
2023/12/29 06:53:21;;;;;;;4.05;2.08;;;15.50;61.60;;;;;;5111212;28;20323;-61
2023/12/29 06:55:47;;;;;;;3.13;1.30;;;15.60;61.60;;;;;;5112355;28;20627;-60
2023/12/29 06:58:12;;;;;;;3.63;1.58;;;15.60;61.60;;;;;;5112078;28;20192;-60
2023/12/29 07:00:38;;;;;;;3.95;1.55;;;15.70;61.60;;;;;;5111166;28;20173;-59
2023/12/29 07:03:04;;;;;;;2.83;1.55;;;15.80;61.40;;;;;;5111950;28;20647;-61
2023/12/29 07:05:29;;;;;;;3.55;1.70;;;15.90;61.20;;;;;;5111947;28;20230;-59
2023/12/29 07:07:55;;;;;;;5.03;1.40;;;16.00;61.00;;;;;;5111274;28;20226;-61
2023/12/29 07:10:20;;;;;;;3.38;1.35;;;16.20;60.80;;;;;;5111820;28;20169;-60
2023/12/29 07:12:46;;;;;;;3.67;1.33;;;16.30;61.40;;;;;;5112077;28;20180;-60
2023/12/29 07:15:13;;;;;;;3.40;1.38;;;16.40;60.20;;;;;;5112096;28;20570;-60
2023/12/29 07:17:39;;;;;;;3.65;1.65;;;16.60;60.00;;;;;;5116019;28;20180;-59
2023/12/29 07:20:06;;;;;;;4.38;1.40;;;16.70;59.80;;;;;;5115735;28;20529;-60
2023/12/29 07:22:32;;;;;;;2.65;1.50;;;16.80;59.50;;;;;;5115593;28;20212;-63
2023/12/29 07:24:58;;;;;;;2.28;1.33;;;16.90;59.50;;;;;;5116164;28;20238;-60
2023/12/29 07:27:23;;;;;;;2.88;1.20;;;17.00;59.30;;;;;;5114825;28;20173;-60
2023/12/29 07:29:49;;;;;;;3.05;1.30;;;17.00;59.20;;;;;;5115813;28;20184;-60
2023/12/29 07:32:15;;;;;;;3.13;1.30;;;17.00;59.20;;;;;;5115194;28;20232;-61
2023/12/29 07:34:40;;;;;;;3.28;1.30;;;17.00;59.20;;;;;;5115091;28;20173;-60
2023/12/29 07:37:06;;;;;;;2.65;1.55;;;17.10;59.20;;;;;;5115582;28;20640;-60
2023/12/29 07:39:31;;;;;;;2.60;0.95;;;17.10;59.20;;;;;;5115092;28;20180;-60
2023/12/29 07:41:57;;;;;;;3.00;1.27;;;17.10;59.10;;;;;;5114738;28;20278;-60
2023/12/29 07:44:23;;;;;;;2.40;1.10;;;17.20;59.00;;;;;;5115159;28;20528;-60
2023/12/29 07:46:48;;;;;;;3.10;1.17;;;17.30;59.00;;;;;;5115224;28;20169;-60
2023/12/29 07:49:14;;;;;;;1.60;1.13;;;17.20;59.10;;;;;;5114417;28;20176;-61
2023/12/29 07:51:41;;;;;;;2.15;1.20;;;17.20;59.10;;;;;;5115360;28;20538;-60
2023/12/29 07:54:07;;;;;;;3.25;1.63;;;17.20;59.10;;;;;;5115144;28;20599;-60
2023/12/29 07:56:33;;;;;;;2.53;1.10;;;17.20;59.20;;;;;;5114057;28;20207;-60
2023/12/29 07:58:58;;;;;;;3.63;1.17;;;17.30;59.10;;;;;;5115112;28;20201;-60
2023/12/29 08:01:24;;;;;;;4.07;1.58;;;17.30;59.10;;;;;;5114597;28;20201;-61
2023/12/29 08:03:49;;;;;;;2.42;1.00;;;17.30;59.10;;;;;;5114566;28;20169;-60
2023/12/29 08:06:15;;;;;;;1.30;0.90;;;17.30;59.10;;;;;;5114838;28;20284;-60
2023/12/29 08:08:41;;;;;;;2.30;1.20;;;17.40;59.10;;;;;;5115068;28;20513;-60
2023/12/29 08:11:12;;;;;;;2.58;1.23;;;17.30;59.20;;;;;;5114103;28;20196;-60
2023/12/29 08:13:37;;;;;;;2.72;1.02;;;17.30;59.20;;;;;;5097288;28;20177;-60
2023/12/29 08:16:03;;;;;;;4.90;1.48;;;17.30;59.30;;;;;;5114756;28;20219;-60
2023/12/29 08:18:29;;;;;;;2.13;0.95;;;17.30;59.30;;;;;;5113805;28;20177;-60
2023/12/29 08:20:54;;;;;;;1.67;1.00;;;17.40;59.30;;;;;;5114723;28;20260;-60
2023/12/29 08:23:20;;;;;;;3.53;1.25;;;17.40;59.20;;;;;;5113742;28;20173;-60
2023/12/29 08:25:46;;;;;;;2.97;1.17;;;17.50;59.20;;;;;;5114120;28;20250;-60
2023/12/29 08:28:11;;;;;;;1.38;0.75;;;17.60;59.10;;;;;;5114525;28;20169;-60
2023/12/29 08:30:38;;;;;;;1.38;0.82;;;17.50;59.10;;;;;;5113530;28;20180;-60
2023/12/29 08:33:04;;;;;;;3.25;1.10;;;17.50;59.10;;;;;;5114663;28;20241;-60
2023/12/29 08:35:29;;;;;;;3.05;1.20;;;17.50;59.20;;;;;;5114320;28;20181;-61
2023/12/29 08:37:55;;;;;;;2.28;1.10;;;17.50;59.20;;;;;;5113835;28;20539;-60
2023/12/29 08:40:20;;;;;;;1.95;0.82;;;17.50;59.20;;;;;;5114054;28;20222;-60
2023/12/29 08:42:46;;;;;;;2.35;1.17;;;17.50;59.20;;;;;;5114241;28;20622;-60
2023/12/29 08:45:11;;;;;;;1.48;0.90;;;17.50;59.20;;;;;;5113404;28;20657;-60
2023/12/29 08:47:37;;;;;;;1.88;0.80;;;17.50;59.20;;;;;;5113747;28;20188;-60
2023/12/29 08:50:04;;;;;;;2.45;0.80;;;17.50;59.20;;;;;;5114269;28;20166;-61
2023/12/29 08:52:29;;;;;;;2.38;1.35;;;17.50;59.30;;;;;;5113197;28;20189;-61
2023/12/29 08:54:55;;;;;;;4.93;1.13;;;17.50;59.30;;;;;;5113953;28;20270;-61
2023/12/29 08:57:20;;;;;;;3.42;1.17;;;17.50;59.30;;;;;;5113754;28;20165;-61
2023/12/29 08:59:46;;;;;;;2.63;1.10;;;17.40;59.20;;;;;;5113176;28;20173;-60
2023/12/29 09:02:11;;;;;;;1.75;0.93;;;17.40;59.30;;;;;;5113840;28;20548;-61
2023/12/29 09:04:37;;;;;;;1.67;1.02;;;17.30;59.40;;;;;;5113679;28;20185;-60
2023/12/29 09:07:04;;;;;;;2.17;1.13;;;17.20;59.50;;;;;;5112993;28;20627;-61
2023/12/29 09:09:29;;;;;;;2.90;1.00;;;17.10;59.60;;;;;;5113418;28;20214;-60
2023/12/29 09:11:55;;;;;;;1.23;0.88;;;17.10;59.80;;;;;;5113700;28;20262;-60
2023/12/29 09:14:20;;;;;;;1.85;1.00;;;17.10;60.60;;;;;;5112562;28;20569;-60
2023/12/29 09:16:46;;;;;;;1.00;0.68;;;17.10;59.90;;;;;;5113769;28;20178;-60
2023/12/29 09:19:13;;;;;;;1.58;0.88;;;17.10;60.00;;;;;;5113651;28;20161;-60
2023/12/29 09:21:38;;;;;;;2.58;0.82;;;17.00;59.90;;;;;;5112505;28;20213;-60
2023/12/29 09:24:04;;;;;;;2.17;1.20;;;17.00;60.00;;;;;;5113397;28;20218;-61
2023/12/29 09:26:30;;;;;;;2.78;0.90;;;17.10;60.00;;;;;;5112248;28;20169;-60
2023/12/29 09:28:55;;;;;;;1.73;0.80;;;17.10;60.00;;;;;;5113068;28;20613;-61
2023/12/29 09:31:21;;;;;;;1.95;1.23;;;17.10;60.00;;;;;;5112699;28;20200;-60
2023/12/29 09:33:46;;;;;;;1.88;1.10;;;17.00;59.90;;;;;;5111972;28;20181;-60
2023/12/29 09:36:12;;;;;;;1.50;0.90;;;17.00;59.90;;;;;;5113253;28;20169;-60
2023/12/29 09:38:37;;;;;;;1.80;1.00;;;17.00;60.00;;;;;;5111813;28;20544;-60
2023/12/29 09:41:11;;;;;;;3.50;1.23;;;16.90;60.10;;;;;;5112406;28;20689;-61
2023/12/29 09:43:36;;;;;;;1.77;1.05;;;16.90;61.10;;;;;;5094546;28;20223;-59
2023/12/29 09:46:02;;;;;;;3.00;1.13;;;16.90;60.30;;;;;;5113028;28;20201;-61
2023/12/29 09:48:28;;;;;;;4.20;1.10;;;16.90;60.50;;;;;;5111324;28;20177;-60
2023/12/29 09:50:54;;;;;;;3.45;1.08;;;16.90;60.50;;;;;;5112954;28;20176;-61
2023/12/29 09:53:24;;;;;;;3.03;1.08;;;16.90;60.50;;;;;;5112410;28;20209;-61
2023/12/29 09:55:50;;;;;;;2.42;1.40;;;17.00;60.60;;;;;;5094385;28;20264;-60
2023/12/29 09:58:15;;;;;;;2.08;1.02;;;16.90;60.60;;;;;;5094173;28;20260;-61
2023/12/29 10:00:42;;;;;;;3.95;1.40;;;16.90;60.50;;;;;;5112945;28;20181;-61
2023/12/29 10:03:08;;;;;;;3.85;1.00;;;17.00;60.50;;;;;;5111797;28;20758;-61
2023/12/29 10:05:33;;;;;;;4.05;1.20;;;17.00;60.60;;;;;;5077491;28;20655;-61
2023/12/29 10:08:01;;;;;;;3.97;0.85;;;17.00;60.60;;;;;;5112551;28;20177;-62
2023/12/29 10:10:27;;;;;;;3.17;1.33;;;16.90;60.60;;;;;;5093570;28;20730;-60
2023/12/29 10:12:52;;;;;;;3.83;1.17;;;16.90;60.70;;;;;;5112470;28;20215;-61
2023/12/29 10:15:34;;;;;;;2.40;1.30;;;16.90;60.90;;;;;;5093983;28;20169;-61
2023/12/29 10:18:41;;;;;;;3.65;1.25;;;16.90;61.00;;;;;;5078150;28;20173;-60
2023/12/29 10:21:28;;;;;;;2.22;1.10;;;17.00;60.90;;;;;;4993445;28;20208;-61
2023/12/29 10:23:58;;;;;;;4.57;0.95;;;17.00;60.90;;;;;;5076824;28;20192;-61
2023/12/29 10:26:25;;;;;;;2.88;0.98;;;17.00;60.90;;;;;;5093594;28;20185;-61
2023/12/29 10:28:50;;;;;;;2.22;0.80;;;17.00;60.80;;;;;;5077427;28;20181;-61
2023/12/29 10:31:16;;;;;;;4.07;1.35;;;17.00;60.70;;;;;;5092887;28;20635;-62
2023/12/29 10:33:42;;;;;;;2.78;1.05;;;17.00;60.60;;;;;;5111677;28;20276;-61
2023/12/29 10:36:08;;;;;;;4.72;1.02;;;17.00;60.90;;;;;;5111212;28;20602;-61
2023/12/29 10:38:34;;;;;;;3.90;1.15;;;17.00;61.00;;;;;;5110196;28;20554;-62
2023/12/29 10:41:16;;;;;;;1.90;1.05;;;17.00;61.10;;;;;;5111933;28;20626;-61
2023/12/29 10:43:42;;;;;;;1.27;0.80;;;17.00;61.20;;;;;;5111891;28;20173;-62
2023/12/29 10:46:09;;;;;;;1.77;1.00;;;17.00;61.30;;;;;;5111681;28;20204;-61
2023/12/29 10:48:34;;;;;;;3.80;0.90;;;16.90;61.30;;;;;;5111539;28;20714;-62
2023/12/29 10:51:03;;;;;;;3.70;1.02;;;16.90;61.30;;;;;;5111059;28;20264;-62
2023/12/29 10:53:32;;;;;;;3.45;1.10;;;16.90;61.30;;;;;;5111381;28;20750;-62
2023/12/29 10:56:00;;;;;;;3.15;0.93;;;16.90;61.30;;;;;;5112016;28;20184;-62
2023/12/29 10:58:29;;;;;;;2.03;1.30;;;16.90;61.30;;;;;;5111334;28;20169;-61
2023/12/29 11:00:57;;;;;;;2.42;1.20;;;16.90;61.40;;;;;;5111743;28;20592;-60
2023/12/29 11:03:24;;;;;;;1.90;1.10;;;16.90;61.30;;;;;;5093878;28;20176;-61
2023/12/29 11:05:49;;;;;;;1.48;0.90;;;16.90;61.20;;;;;;5111217;28;20249;-61
2023/12/29 11:08:16;;;;;;;2.05;1.05;;;16.90;61.20;;;;;;5093389;28;20176;-62
2023/12/29 11:10:42;;;;;;;1.90;0.63;;;16.90;61.30;;;;;;5111714;28;20654;-61
2023/12/29 11:13:08;;;;;;;1.42;1.00;;;16.80;61.30;;;;;;5092859;28;20173;-61
2023/12/29 11:15:33;;;;;;;2.22;0.73;;;16.80;61.40;;;;;;5111419;28;20557;-61
2023/12/29 11:17:59;;;;;;;2.97;1.30;;;16.80;61.40;;;;;;5093449;28;20176;-63
2023/12/29 11:20:26;;;;;;;1.48;0.60;;;16.80;61.60;;;;;;5110737;28;20301;-63
2023/12/29 11:22:51;;;;;;;2.63;0.90;;;16.80;61.50;;;;;;5111709;28;20247;-62
2023/12/29 11:25:17;;;;;;;1.40;1.02;;;16.80;61.50;;;;;;5111519;28;20200;-62
2023/12/29 11:27:42;;;;;;;2.38;1.20;;;16.80;61.40;;;;;;5092711;28;20212;-61
2023/12/29 11:30:08;;;;;;;1.25;0.60;;;16.80;61.40;;;;;;5093605;28;20169;-61
2023/12/29 11:32:40;;;;;;;1.88;1.17;;;16.80;61.40;;;;;;5076541;28;20185;-61
2023/12/29 11:35:44;;;;;;;0.85;0.85;;;16.80;61.60;;;;;;5110945;28;20225;-62
2023/12/29 11:38:17;;;;;;;3.75;0.80;;;16.80;61.40;;;;;;5093896;28;20173;-61
2023/12/29 11:41:01;;;;;;;1.85;0.68;;;16.80;61.50;;;;;;5109819;28;20177;-61
2023/12/29 11:43:26;;;;;;;0.88;0.85;;;16.80;61.50;;;;;;5093700;28;20639;-62
2023/12/29 11:45:52;;;;;;;3.55;1.05;;;16.80;61.40;;;;;;5111250;28;20162;-62
2023/12/29 11:48:56;;;;;;;2.42;1.23;;;16.80;61.40;;;;;;5110381;28;20177;-62
2023/12/29 11:51:43;;;;;;;1.63;1.10;;;16.80;61.30;;;;;;5111035;28;20200;-63
2023/12/29 11:54:08;;;;;;;2.45;0.80;;;16.80;61.40;;;;;;5111063;28;20705;-61
2023/12/29 11:56:40;;;;;;;2.38;1.60;;;16.80;61.60;;;;;;5110461;28;20177;-61
2023/12/29 11:59:22;;;;;;;2.35;1.20;;;16.80;61.40;;;;;;5111403;28;20230;-61
2023/12/29 12:01:54;;;;;;;2.65;0.98;;;16.80;61.60;;;;;;5112500;28;20327;-60
2023/12/29 12:04:43;;;;;;;1.48;0.70;;;16.80;61.70;;;;;;5097073;28;20165;-60
2023/12/29 12:07:31;;;;;;;2.30;1.20;;;16.80;61.70;;;;;;5114966;28;20179;-61
2023/12/29 12:10:29;;;;;;;2.15;0.82;;;16.80;61.80;;;;;;5114444;28;20188;-61
2023/12/29 12:12:56;;;;;;;2.03;0.90;;;16.80;61.80;;;;;;5114848;28;20233;-60
2023/12/29 12:15:28;;;;;;;1.83;1.05;;;16.80;61.80;;;;;;5113901;28;20542;-61
2023/12/29 12:17:56;;;;;;;2.22;0.90;;;16.80;61.80;;;;;;5115378;28;20173;-62
2023/12/29 12:20:21;;;;;;;1.83;0.93;;;16.80;62.00;;;;;;5114592;28;20176;-62
2023/12/29 12:23:07;;;;;;;3.88;0.77;;;16.80;61.70;;;;;;5114059;28;20208;-60
2023/12/29 12:25:37;;;;;;;1.10;0.70;;;16.80;62.50;;;;;;5098904;28;20624;-60
2023/12/29 12:28:06;;;;;;;4.13;1.00;;;16.80;61.70;;;;;;5114231;28;20183;-61
2023/12/29 12:30:34;;;;;;;6.07;1.40;;;16.70;61.70;;;;;;5113490;28;20177;-60
2023/12/29 12:33:03;;;;;;;4.88;1.10;;;16.80;61.60;;;;;;5114368;28;20405;-61
2023/12/29 12:35:29;;;;;;;4.38;1.13;;;16.80;62.00;;;;;;5114146;28;20226;-61
2023/12/29 12:38:30;;;;;;;3.15;1.20;;;16.70;61.90;;;;;;5113589;28;20196;-62
2023/12/29 12:40:56;;;;;;;4.05;1.00;;;16.80;61.80;;;;;;5060397;28;20196;-61
2023/12/29 12:43:21;;;;;;;3.72;1.00;;;16.70;61.80;;;;;;5095469;28;20548;-62
2023/12/29 12:45:49;;;;;;;7.63;0.95;;;16.70;62.60;;;;;;5095473;28;20165;-62
2023/12/29 12:48:29;;;;;;;3.55;1.17;;;16.70;61.60;;;;;;5095772;28;20252;-62